Time;durP1;ratioP1;P1;durP2;ratioP2;P2;SDS_P1;SDS_P2;PMS_P1;PMS_P2;Temp;Humidity;BMP_temperature;BMP_pressure;BME280_temperature;BME280_humidity;BME280_pressure;Samples;Min_cycle;Max_cycle;Signal;HPM_P1;HPM_P2
2023/06/26 00:00:11;;;;;;;7.13;6.40;;;27.60;50.20;;;;;;5095674;28;20455;-69
2023/06/26 00:02:37;;;;;;;6.83;6.23;;;27.60;50.20;;;;;;5095717;28;20546;-70
2023/06/26 00:05:05;;;;;;;7.70;6.70;;;27.50;50.50;;;;;;5095597;28;20439;-70
2023/06/26 00:07:33;;;;;;;8.70;6.10;;;27.50;50.30;;;;;;5095465;28;20447;-69
2023/06/26 00:10:02;;;;;;;9.20;7.13;;;27.40;50.60;;;;;;5095119;28;20538;-70
2023/06/26 00:12:29;;;;;;;8.43;7.07;;;27.40;51.00;;;;;;5095335;28;20502;-69
2023/06/26 00:14:57;;;;;;;7.30;6.20;;;27.40;51.40;;;;;;5095125;28;20475;-70
2023/06/26 00:17:24;;;;;;;8.77;5.93;;;27.30;51.50;;;;;;5095300;28;20455;-70
2023/06/26 00:19:51;;;;;;;6.90;6.20;;;27.30;51.30;;;;;;5095487;28;20447;-70
2023/06/26 00:22:20;;;;;;;6.90;6.30;;;27.30;51.10;;;;;;5095603;28;20984;-69
2023/06/26 00:24:47;;;;;;;10.80;6.50;;;27.30;51.20;;;;;;5096441;28;20452;-70
2023/06/26 00:27:13;;;;;;;7.90;7.20;;;27.20;51.20;;;;;;5095931;28;20440;-69
2023/06/26 00:29:40;;;;;;;12.57;8.00;;;27.20;51.30;;;;;;5095927;28;20448;-70
2023/06/26 00:32:09;;;;;;;8.30;7.30;;;27.20;51.40;;;;;;5095226;28;20554;-69
2023/06/26 00:34:36;;;;;;;7.07;6.50;;;27.20;51.50;;;;;;5098997;28;20480;-70
2023/06/26 00:37:03;;;;;;;10.90;7.20;;;27.00;51.50;;;;;;5099993;28;20450;-70
2023/06/26 00:39:30;;;;;;;7.30;6.70;;;27.00;51.70;;;;;;5100189;28;20830;-70
2023/06/26 00:41:57;;;;;;;6.60;6.10;;;26.90;51.90;;;;;;5100201;28;20468;-69
2023/06/26 00:44:24;;;;;;;7.83;7.03;;;26.90;52.00;;;;;;5099413;28;21023;-70
2023/06/26 00:46:51;;;;;;;8.27;7.13;;;26.80;52.00;;;;;;5098891;28;20452;-70
2023/06/26 00:49:20;;;;;;;9.53;7.13;;;26.70;52.40;;;;;;5098340;28;20443;-69
2023/06/26 00:51:47;;;;;;;7.63;6.83;;;26.80;52.10;;;;;;5097753;28;20470;-69
2023/06/26 00:54:19;;;;;;;8.10;6.40;;;26.70;52.00;;;;;;5098157;28;20475;-69
2023/06/26 00:56:46;;;;;;;7.00;6.30;;;26.60;52.20;;;;;;5100594;28;20451;-69
2023/06/26 00:59:13;;;;;;;7.70;6.50;;;26.60;52.70;;;;;;5099027;28;20451;-70
2023/06/26 01:01:40;;;;;;;8.67;6.60;;;26.50;52.70;;;;;;5099276;28;20452;-69
2023/06/26 01:04:07;;;;;;;9.20;6.87;;;26.40;52.50;;;;;;5097971;28;20440;-70
2023/06/26 01:06:36;;;;;;;8.60;6.90;;;26.40;52.40;;;;;;5098744;28;20447;-70
2023/06/26 01:09:03;;;;;;;6.97;6.37;;;26.30;52.20;;;;;;5102949;28;20482;-68
2023/06/26 01:11:30;;;;;;;7.30;6.60;;;26.30;52.40;;;;;;5085256;28;20510;-67
2023/06/26 01:14:00;;;;;;;6.40;5.90;;;26.20;52.30;;;;;;5102688;28;20483;-68
2023/06/26 01:16:30;;;;;;;8.10;6.77;;;26.20;52.50;;;;;;5103240;28;20431;-68
2023/06/26 01:18:57;;;;;;;7.40;6.70;;;26.10;52.60;;;;;;5101848;28;20455;-68
2023/06/26 01:21:32;;;;;;;7.33;6.73;;;26.10;52.80;;;;;;5102107;28;20455;-68
2023/06/26 01:24:09;;;;;;;7.83;7.00;;;26.10;52.80;;;;;;5102107;28;20924;-67
2023/06/26 01:26:37;;;;;;;8.07;7.27;;;26.00;53.30;;;;;;5102321;28;20841;-68
2023/06/26 01:29:07;;;;;;;7.13;6.53;;;26.00;53.40;;;;;;5101884;28;20444;-68
2023/06/26 01:31:35;;;;;;;7.30;6.60;;;25.90;53.40;;;;;;5102455;28;20472;-67
2023/06/26 01:34:02;;;;;;;7.60;6.43;;;25.80;53.70;;;;;;5101655;28;20559;-68
2023/06/26 01:36:29;;;;;;;7.63;6.93;;;25.80;53.70;;;;;;5099963;28;20455;-68
2023/06/26 01:38:56;;;;;;;8.20;6.63;;;25.70;54.00;;;;;;5100291;28;20452;-68
2023/06/26 01:41:23;;;;;;;7.50;6.87;;;25.70;54.30;;;;;;5100652;28;20490;-67
2023/06/26 01:44:08;;;;;;;7.07;6.50;;;25.70;54.50;;;;;;5096642;28;20565;-69
2023/06/26 01:46:40;;;;;;;9.50;7.10;;;25.70;54.10;;;;;;5094408;28;20432;-69
2023/06/26 01:49:16;;;;;;;8.47;7.10;;;25.70;54.40;;;;;;5094077;28;20432;-69
2023/06/26 01:51:46;;;;;;;7.43;6.73;;;25.60;54.50;;;;;;5093836;28;20459;-69
2023/06/26 01:54:22;;;;;;;11.40;7.20;;;25.60;55.00;;;;;;5093986;28;20464;-70
2023/06/26 01:56:51;;;;;;;8.67;7.37;;;25.60;54.80;;;;;;5093793;28;20436;-69
2023/06/26 01:59:20;;;;;;;8.17;7.27;;;25.60;54.70;;;;;;5093962;28;20448;-70
2023/06/26 02:01:47;;;;;;;9.63;7.10;;;25.60;54.90;;;;;;5093331;28;20937;-70
2023/06/26 02:04:14;;;;;;;8.70;6.97;;;25.60;55.10;;;;;;5092189;28;20436;-69
2023/06/26 02:06:41;;;;;;;7.30;6.53;;;25.50;55.30;;;;;;5093752;28;20574;-70
2023/06/26 02:09:08;;;;;;;9.37;7.50;;;25.50;55.50;;;;;;5093772;28;20451;-70
2023/06/26 02:11:35;;;;;;;7.80;7.00;;;25.50;56.10;;;;;;5093820;28;20501;-69
2023/06/26 02:14:02;;;;;;;8.67;7.20;;;25.50;55.90;;;;;;5093758;28;20466;-69
2023/06/26 02:16:31;;;;;;;8.37;6.90;;;25.40;55.70;;;;;;5093672;28;20497;-70
2023/06/26 02:18:58;;;;;;;14.97;6.83;;;25.40;55.80;;;;;;5093083;28;20459;-70
2023/06/26 02:21:24;;;;;;;6.63;6.03;;;25.30;54.80;;;;;;5093713;28;20451;-70
2023/06/26 02:23:51;;;;;;;7.27;6.57;;;25.20;54.70;;;;;;5093688;28;20472;-69
2023/06/26 02:26:18;;;;;;;10.57;7.30;;;25.10;55.60;;;;;;5093650;28;20440;-70
2023/06/26 02:28:45;;;;;;;7.93;7.20;;;25.10;56.40;;;;;;5093622;28;20447;-70
2023/06/26 02:31:11;;;;;;;12.30;8.03;;;25.00;56.80;;;;;;5093524;28;20505;-70
2023/06/26 02:33:39;;;;;;;10.93;7.30;;;24.90;56.40;;;;;;5093826;28;20476;-69
2023/06/26 02:36:07;;;;;;;8.37;6.63;;;25.00;56.40;;;;;;5093419;28;20511;-72
2023/06/26 02:38:33;;;;;;;10.20;7.13;;;24.90;56.30;;;;;;5093591;28;20452;-70
2023/06/26 02:41:00;;;;;;;9.80;6.93;;;24.80;55.70;;;;;;5093669;28;20451;-69
2023/06/26 02:43:27;;;;;;;8.33;6.73;;;24.70;56.40;;;;;;5093903;28;20996;-70
2023/06/26 02:45:54;;;;;;;8.67;6.70;;;24.60;56.90;;;;;;5104682;28;20444;-70
2023/06/26 02:48:21;;;;;;;8.90;6.20;;;24.50;57.20;;;;;;5098744;28;20466;-68
2023/06/26 02:50:49;;;;;;;7.63;6.60;;;24.40;57.40;;;;;;5095239;28;20471;-70
2023/06/26 02:53:15;;;;;;;8.33;6.57;;;24.40;58.40;;;;;;5094860;28;20468;-70
2023/06/26 02:55:42;;;;;;;7.53;6.67;;;24.30;58.50;;;;;;5092884;28;20558;-70
2023/06/26 02:58:09;;;;;;;8.27;6.57;;;24.20;58.70;;;;;;5093853;28;20446;-70
2023/06/26 03:00:41;;;;;;;8.73;6.93;;;24.10;59.40;;;;;;5093028;28;20797;-69
2023/06/26 03:03:07;;;;;;;7.90;6.93;;;24.10;59.70;;;;;;5093548;28;20478;-69
2023/06/26 03:05:35;;;;;;;7.90;7.20;;;24.00;60.10;;;;;;5091911;28;20936;-70
2023/06/26 03:08:04;;;;;;;10.53;6.80;;;23.90;60.60;;;;;;5093211;28;20444;-70
2023/06/26 03:10:30;;;;;;;9.07;7.50;;;23.80;61.30;;;;;;5093342;28;20448;-70
2023/06/26 03:12:57;;;;;;;8.43;6.93;;;23.80;61.70;;;;;;5096113;28;20455;-69
2023/06/26 03:15:24;;;;;;;7.97;7.27;;;23.80;62.30;;;;;;5097299;28;20991;-69
2023/06/26 03:17:51;;;;;;;9.30;7.20;;;23.80;62.40;;;;;;5098281;28;20462;-69
2023/06/26 03:20:18;;;;;;;7.00;6.40;;;23.80;63.50;;;;;;5097217;28;20444;-70
2023/06/26 03:22:45;;;;;;;11.33;7.10;;;23.70;63.70;;;;;;5097902;28;20459;-69
2023/06/26 03:25:13;;;;;;;10.13;6.93;;;23.70;64.50;;;;;;5096985;28;20451;-70
2023/06/26 03:27:39;;;;;;;7.60;6.60;;;23.60;64.20;;;;;;5096731;28;20459;-70
2023/06/26 03:30:07;;;;;;;7.00;6.30;;;23.60;65.30;;;;;;5096777;28;20443;-70
2023/06/26 03:32:33;;;;;;;9.97;7.57;;;23.50;64.90;;;;;;5096463;28;20988;-69
2023/06/26 03:35:02;;;;;;;8.17;7.27;;;23.50;65.70;;;;;;5096196;28;20502;-70
2023/06/26 03:37:29;;;;;;;7.50;6.80;;;23.50;66.20;;;;;;5096298;28;20941;-70
2023/06/26 03:39:56;;;;;;;6.83;6.23;;;23.50;66.50;;;;;;5097036;28;20448;-70
2023/06/26 03:42:25;;;;;;;7.03;6.30;;;23.50;66.60;;;;;;5096519;28;20472;-69
2023/06/26 03:44:51;;;;;;;6.80;6.20;;;23.50;66.10;;;;;;5096623;28;20443;-70
2023/06/26 03:47:18;;;;;;;10.33;6.93;;;23.40;66.60;;;;;;5096476;28;20966;-70
2023/06/26 03:49:45;;;;;;;7.87;6.83;;;23.40;67.30;;;;;;5095918;28;20998;-70
2023/06/26 03:52:11;;;;;;;6.63;6.03;;;23.40;67.60;;;;;;5096279;28;20472;-69
2023/06/26 03:54:38;;;;;;;6.87;5.87;;;23.40;68.20;;;;;;5096152;28;20448;-69
2023/06/26 03:57:05;;;;;;;10.90;6.03;;;23.40;67.70;;;;;;5094506;28;20473;-70
2023/06/26 03:59:33;;;;;;;8.03;6.30;;;23.30;68.90;;;;;;5096497;28;20466;-70
2023/06/26 04:02:01;;;;;;;9.27;7.50;;;23.30;68.30;;;;;;5096610;28;20460;-69
2023/06/26 04:04:27;;;;;;;7.00;6.30;;;23.40;68.60;;;;;;5096395;28;20539;-70
2023/06/26 04:06:54;;;;;;;9.80;6.50;;;23.30;69.50;;;;;;5095944;28;20951;-70
2023/06/26 04:09:21;;;;;;;6.57;6.07;;;23.30;68.40;;;;;;5095716;28;21051;-69
2023/06/26 04:11:48;;;;;;;7.90;6.20;;;23.30;68.70;;;;;;5096553;28;20451;-70
2023/06/26 04:14:14;;;;;;;6.97;6.37;;;23.30;68.30;;;;;;5096243;28;20819;-70
2023/06/26 04:16:43;;;;;;;9.60;6.90;;;23.30;69.10;;;;;;5096212;28;20479;-70
2023/06/26 04:19:10;;;;;;;7.30;6.07;;;23.20;69.50;;;;;;5099469;28;20551;-68
2023/06/26 04:21:37;;;;;;;6.53;6.03;;;23.30;70.30;;;;;;5097310;28;20451;-70
2023/06/26 04:24:04;;;;;;;7.20;5.80;;;23.40;71.20;;;;;;5096206;28;20820;-71
2023/06/26 04:26:31;;;;;;;8.53;6.23;;;23.40;71.10;;;;;;5094926;28;20450;-72
2023/06/26 04:28:58;;;;;;;7.77;6.90;;;23.40;71.20;;;;;;5095527;28;20454;-71
2023/06/26 04:31:25;;;;;;;8.80;7.07;;;23.40;71.60;;;;;;5094365;28;20454;-72
2023/06/26 04:33:54;;;;;;;6.70;6.10;;;23.50;71.90;;;;;;5095667;28;20464;-72
2023/06/26 04:36:21;;;;;;;9.20;7.20;;;23.50;72.40;;;;;;5095902;28;20475;-70
2023/06/26 04:38:49;;;;;;;7.80;7.10;;;23.60;73.00;;;;;;5095667;28;20444;-72
2023/06/26 04:41:16;;;;;;;7.93;7.20;;;23.60;72.60;;;;;;5095558;28;20454;-71
2023/06/26 04:43:43;;;;;;;12.53;6.20;;;23.60;71.90;;;;;;5095445;28;20472;-71
2023/06/26 04:46:09;;;;;;;9.73;7.00;;;23.40;72.00;;;;;;5097939;28;20471;-68
2023/06/26 04:48:36;;;;;;;7.07;6.47;;;23.40;72.10;;;;;;5096582;28;20443;-69
2023/06/26 04:51:04;;;;;;;7.07;6.20;;;23.40;72.60;;;;;;5095129;28;20448;-70
2023/06/26 04:53:32;;;;;;;8.80;5.90;;;23.40;73.00;;;;;;5094366;28;20475;-69
2023/06/26 04:55:58;;;;;;;8.43;6.43;;;23.40;72.20;;;;;;5094666;28;20476;-70
2023/06/26 04:58:25;;;;;;;9.00;6.20;;;23.40;71.70;;;;;;5094638;28;20496;-70
2023/06/26 05:00:52;;;;;;;10.57;6.23;;;23.40;71.50;;;;;;5094731;28;20448;-70
2023/06/26 05:03:20;;;;;;;9.10;6.07;;;23.40;71.50;;;;;;5094574;28;20467;-70
2023/06/26 05:05:47;;;;;;;6.30;5.50;;;23.40;71.30;;;;;;5094536;28;20448;-69
2023/06/26 05:08:21;;;;;;;9.43;5.73;;;23.40;71.10;;;;;;5094321;28;20454;-69
2023/06/26 05:10:49;;;;;;;7.00;4.90;;;23.50;71.40;;;;;;5094403;28;20442;-69
2023/06/26 05:13:17;;;;;;;8.03;5.50;;;23.60;71.60;;;;;;5094302;28;20488;-69
2023/06/26 05:15:44;;;;;;;7.23;5.70;;;23.50;69.60;;;;;;5094202;28;20480;-70
2023/06/26 05:18:11;;;;;;;8.10;5.43;;;23.40;69.20;;;;;;5094023;28;20456;-70
2023/06/26 05:20:39;;;;;;;8.37;6.60;;;23.30;70.00;;;;;;5097136;28;20463;-71
2023/06/26 05:23:06;;;;;;;12.50;5.47;;;23.30;70.80;;;;;;5099893;28;20468;-71
2023/06/26 05:25:35;;;;;;;6.10;5.03;;;23.30;70.50;;;;;;5103447;28;20520;-70
2023/06/26 05:28:04;;;;;;;6.30;5.70;;;23.20;71.30;;;;;;5101728;28;20534;-70
2023/06/26 05:30:34;;;;;;;9.00;5.93;;;23.10;71.00;;;;;;5099789;28;20483;-70
2023/06/26 05:33:02;;;;;;;6.13;5.00;;;23.20;71.50;;;;;;5096850;28;20467;-70
2023/06/26 05:35:30;;;;;;;11.40;5.67;;;23.30;71.60;;;;;;5095713;28;20571;-70
2023/06/26 05:37:58;;;;;;;7.30;5.53;;;23.30;71.90;;;;;;5097631;28;20483;-70
2023/06/26 05:40:26;;;;;;;7.13;5.57;;;23.40;71.70;;;;;;5104636;28;20464;-69
2023/06/26 05:42:54;;;;;;;5.47;4.53;;;23.40;70.00;;;;;;5108909;28;20468;-69
2023/06/26 05:45:21;;;;;;;6.43;5.37;;;23.40;70.10;;;;;;5101200;28;20500;-70
2023/06/26 05:47:49;;;;;;;8.10;5.47;;;23.40;70.60;;;;;;5096100;28;20455;-70
2023/06/26 05:50:18;;;;;;;8.07;5.47;;;23.40;71.00;;;;;;5094556;28;20853;-69
2023/06/26 05:52:45;;;;;;;6.43;5.30;;;23.30;69.70;;;;;;5094193;28;20850;-70
2023/06/26 05:55:14;;;;;;;6.60;5.10;;;23.30;70.70;;;;;;5094553;28;20455;-70
2023/06/26 05:57:42;;;;;;;7.00;5.23;;;23.30;72.00;;;;;;5094051;28;20828;-70
2023/06/26 06:00:12;;;;;;;6.80;5.77;;;23.20;70.70;;;;;;5094024;28;20455;-70
2023/06/26 06:02:39;;;;;;;9.50;5.97;;;23.30;71.90;;;;;;5094462;28;20467;-70
2023/06/26 06:05:06;;;;;;;6.83;5.30;;;23.20;71.90;;;;;;5094231;28;20448;-69
2023/06/26 06:07:34;;;;;;;6.43;5.00;;;23.10;72.40;;;;;;5093800;28;20522;-69
2023/06/26 06:10:01;;;;;;;6.73;5.80;;;23.00;73.10;;;;;;5093774;28;20444;-69
2023/06/26 06:12:28;;;;;;;9.57;5.70;;;22.90;74.60;;;;;;5093447;28;20463;-69
2023/06/26 06:14:55;;;;;;;8.17;5.30;;;22.70;74.50;;;;;;5093723;28;20455;-70
2023/06/26 06:17:23;;;;;;;8.13;5.47;;;22.70;75.20;;;;;;5093375;28;20992;-70
2023/06/26 06:19:50;;;;;;;8.60;5.77;;;22.70;75.90;;;;;;5093793;28;20447;-69
2023/06/26 06:22:17;;;;;;;8.03;5.63;;;22.80;75.70;;;;;;5093075;28;20464;-68
2023/06/26 06:24:45;;;;;;;10.87;7.00;;;22.90;76.20;;;;;;5093716;28;20452;-70
2023/06/26 06:27:11;;;;;;;7.33;4.80;;;23.00;76.10;;;;;;5093501;28;20432;-69
2023/06/26 06:29:38;;;;;;;10.83;5.43;;;23.00;75.30;;;;;;5093449;28;20444;-70
2023/06/26 06:32:05;;;;;;;9.63;4.93;;;23.00;74.80;;;;;;5093140;28;20463;-69
2023/06/26 06:34:33;;;;;;;12.13;5.10;;;23.00;74.90;;;;;;5093215;28;20972;-69
2023/06/26 06:37:00;;;;;;;9.20;5.40;;;23.00;74.90;;;;;;5093484;28;20475;-70
2023/06/26 06:39:27;;;;;;;7.97;5.60;;;23.10;75.30;;;;;;5091915;28;21050;-70
2023/06/26 06:41:54;;;;;;;13.70;5.20;;;23.00;75.60;;;;;;5093310;28;20474;-69
2023/06/26 06:44:21;;;;;;;8.40;4.63;;;23.10;76.50;;;;;;5093479;28;20857;-70
2023/06/26 06:46:48;;;;;;;9.90;5.80;;;23.00;75.00;;;;;;5093546;28;20505;-70
2023/06/26 06:49:14;;;;;;;9.67;5.73;;;23.10;75.90;;;;;;5094804;28;20452;-70
2023/06/26 06:51:45;;;;;;;10.27;5.33;;;23.10;74.80;;;;;;5097274;28;20454;-70
2023/06/26 06:54:12;;;;;;;9.70;6.50;;;23.10;75.40;;;;;;5097028;28;20436;-69
2023/06/26 06:56:38;;;;;;;9.60;5.80;;;23.20;76.50;;;;;;5096975;28;20905;-70
2023/06/26 06:59:06;;;;;;;10.00;6.23;;;23.30;76.50;;;;;;5097090;28;20447;-69
2023/06/26 07:01:33;;;;;;;8.07;5.20;;;23.40;75.80;;;;;;5096751;28;20934;-69
2023/06/26 07:03:59;;;;;;;5.97;4.60;;;23.60;75.00;;;;;;5097040;28;20444;-70
2023/06/26 07:06:26;;;;;;;10.00;4.40;;;23.80;74.70;;;;;;5096935;28;20440;-70
2023/06/26 07:08:54;;;;;;;9.67;5.20;;;24.00;73.70;;;;;;5096303;28;20485;-69
2023/06/26 07:11:21;;;;;;;7.63;4.87;;;24.10;73.00;;;;;;5096805;28;20451;-70
2023/06/26 07:13:48;;;;;;;14.17;4.57;;;24.30;72.60;;;;;;5095291;28;20464;-70
2023/06/26 07:16:14;;;;;;;10.27;4.77;;;24.40;71.50;;;;;;5096576;28;20475;-70
2023/06/26 07:18:41;;;;;;;6.87;4.80;;;24.50;71.40;;;;;;5095989;28;20944;-70
2023/06/26 07:21:09;;;;;;;8.33;4.93;;;24.60;71.40;;;;;;5096479;28;20447;-70
2023/06/26 07:23:36;;;;;;;12.30;5.60;;;24.80;69.60;;;;;;5096332;28;20577;-70
2023/06/26 07:26:04;;;;;;;9.67;4.03;;;24.80;68.20;;;;;;5096502;28;20467;-70
2023/06/26 07:28:31;;;;;;;5.27;4.77;;;24.90;69.70;;;;;;5096437;28;20447;-70
2023/06/26 07:30:57;;;;;;;7.60;4.70;;;24.90;69.40;;;;;;5096500;28;20450;-70
2023/06/26 07:33:24;;;;;;;20.13;5.57;;;25.10;67.60;;;;;;5096094;28;20468;-70
2023/06/26 07:35:51;;;;;;;6.30;4.43;;;25.30;67.70;;;;;;5095890;28;20448;-70
2023/06/26 07:38:18;;;;;;;9.53;4.63;;;25.40;67.20;;;;;;5096286;28;20447;-70
2023/06/26 07:40:44;;;;;;;8.27;5.00;;;25.40;65.80;;;;;;5095878;28;20444;-69
2023/06/26 07:43:12;;;;;;;11.73;5.17;;;25.50;66.70;;;;;;5098592;28;20467;-70
2023/06/26 07:45:39;;;;;;;8.00;5.13;;;25.50;65.10;;;;;;5105520;28;20447;-70
2023/06/26 07:48:07;;;;;;;6.27;5.13;;;25.50;64.50;;;;;;5099588;28;20470;-70
2023/06/26 07:50:34;;;;;;;7.57;4.73;;;25.50;65.30;;;;;;5097782;28;20444;-70
2023/06/26 07:53:00;;;;;;;7.60;4.70;;;25.40;64.20;;;;;;5095950;28;20474;-70
2023/06/26 07:55:27;;;;;;;8.47;4.60;;;25.50;64.80;;;;;;5095897;28;20515;-69
2023/06/26 07:57:55;;;;;;;7.77;5.30;;;25.40;64.10;;;;;;5103362;28;20484;-70
2023/06/26 08:00:23;;;;;;;8.40;5.13;;;25.40;65.20;;;;;;5103313;28;20483;-69
2023/06/26 08:02:50;;;;;;;10.70;4.30;;;25.40;64.30;;;;;;5102256;28;20460;-69
2023/06/26 08:05:17;;;;;;;12.93;5.00;;;25.50;64.70;;;;;;5101623;28;20443;-69
2023/06/26 08:07:44;;;;;;;11.00;5.57;;;25.40;63.80;;;;;;5102931;28;20443;-69
2023/06/26 08:10:11;;;;;;;9.07;4.93;;;25.40;65.40;;;;;;5101736;28;20447;-68
2023/06/26 08:12:40;;;;;;;12.43;5.10;;;25.10;64.00;;;;;;5108685;28;20485;-69
2023/06/26 08:15:07;;;;;;;10.17;5.60;;;25.10;65.10;;;;;;5122816;28;20869;-69
2023/06/26 08:17:36;;;;;;;5.70;4.40;;;25.00;64.70;;;;;;5123389;28;20478;-70
2023/06/26 08:20:03;;;;;;;8.10;5.43;;;24.90;66.50;;;;;;5122567;28;20435;-69
2023/06/26 08:22:30;;;;;;;7.63;5.40;;;24.80;67.40;;;;;;5122654;28;20462;-68
2023/06/26 08:24:57;;;;;;;7.73;5.03;;;24.80;67.70;;;;;;5123766;27;20451;-69
2023/06/26 08:27:24;;;;;;;13.33;5.00;;;24.80;67.20;;;;;;5123218;28;20517;-69
2023/06/26 08:29:51;;;;;;;6.70;4.50;;;24.80;67.30;;;;;;5123100;28;20450;-69
2023/06/26 08:32:18;;;;;;;15.37;6.33;;;24.90;67.20;;;;;;5122534;28;20524;-69
2023/06/26 08:34:46;;;;;;;13.90;5.33;;;24.90;64.80;;;;;;5122852;28;20451;-69
2023/06/26 08:37:12;;;;;;;8.87;5.00;;;24.90;65.30;;;;;;5129361;27;20487;-70
2023/06/26 08:39:40;;;;;;;12.13;5.43;;;24.80;64.20;;;;;;5122921;28;20457;-69
2023/06/26 08:42:07;;;;;;;9.73;5.17;;;24.70;64.90;;;;;;5121369;28;20474;-68
2023/06/26 08:44:34;;;;;;;8.40;5.70;;;24.60;66.40;;;;;;5122702;28;20449;-69
2023/06/26 08:47:01;;;;;;;11.50;5.47;;;24.70;66.50;;;;;;5122382;28;20812;-69
2023/06/26 08:49:35;;;;;;;10.93;4.80;;;24.90;66.80;;;;;;5122657;28;20468;-68
2023/06/26 08:52:11;;;;;;;13.73;5.67;;;25.00;66.60;;;;;;5122841;28;20495;-68
2023/06/26 08:54:44;;;;;;;8.23;4.80;;;25.20;64.40;;;;;;5122860;27;20449;-68
2023/06/26 08:57:11;;;;;;;7.83;5.37;;;25.40;64.60;;;;;;5119670;28;20488;-70
2023/06/26 08:59:39;;;;;;;7.83;5.40;;;25.60;64.20;;;;;;5118241;28;20439;-71
2023/06/26 09:02:06;;;;;;;11.27;5.50;;;25.60;61.60;;;;;;5120047;28;20469;-70
2023/06/26 09:04:33;;;;;;;6.07;4.63;;;25.70;60.40;;;;;;5119619;28;20447;-71
2023/06/26 09:07:00;;;;;;;14.27;6.20;;;25.60;60.00;;;;;;5121563;28;20447;-70
2023/06/26 09:09:28;;;;;;;10.60;5.83;;;25.60;60.50;;;;;;5123493;28;20443;-70
2023/06/26 09:11:55;;;;;;;6.30;4.60;;;25.60;61.10;;;;;;5123159;28;21006;-69
2023/06/26 09:14:22;;;;;;;9.23;5.10;;;25.70;61.70;;;;;;5124286;28;20474;-70
2023/06/26 09:16:49;;;;;;;8.13;5.00;;;26.00;61.30;;;;;;5124409;28;20474;-70
2023/06/26 09:19:16;;;;;;;8.50;4.83;;;26.10;61.10;;;;;;5121840;28;20517;-71
2023/06/26 09:21:44;;;;;;;5.97;4.40;;;26.30;58.60;;;;;;5122435;28;20453;-70
2023/06/26 09:24:11;;;;;;;16.27;5.73;;;26.50;58.60;;;;;;5122581;28;20928;-71
2023/06/26 09:26:41;;;;;;;13.30;5.57;;;26.90;59.00;;;;;;5122816;28;20439;-71
2023/06/26 09:29:09;;;;;;;6.20;4.23;;;27.20;57.10;;;;;;5121458;28;20450;-71
2023/06/26 09:31:37;;;;;;;11.17;4.70;;;27.40;57.00;;;;;;5121833;28;20551;-70
2023/06/26 09:34:04;;;;;;;6.63;3.90;;;27.60;55.20;;;;;;5120284;28;20453;-70
2023/06/26 09:36:33;;;;;;;7.70;3.77;;;27.50;55.30;;;;;;5120093;28;20443;-72
2023/06/26 09:39:02;;;;;;;9.80;4.40;;;27.60;56.30;;;;;;5118577;28;20447;-72
2023/06/26 09:41:30;;;;;;;5.03;4.13;;;27.70;54.60;;;;;;5116731;28;20450;-72
2023/06/26 09:44:03;;;;;;;7.83;4.30;;;27.80;53.60;;;;;;5116644;28;20838;-72
2023/06/26 09:46:31;;;;;;;8.37;3.80;;;27.90;53.30;;;;;;5118304;28;20795;-72
2023/06/26 09:49:04;;;;;;;8.60;4.60;;;28.10;54.50;;;;;;5118841;28;20447;-71
2023/06/26 09:51:32;;;;;;;7.40;4.17;;;28.00;52.50;;;;;;5118374;28;20469;-71
2023/06/26 09:53:59;;;;;;;5.83;3.50;;;28.20;52.60;;;;;;5118171;28;20462;-71
2023/06/26 09:56:26;;;;;;;9.10;4.30;;;28.40;51.80;;;;;;5118873;28;20450;-72
2023/06/26 09:58:56;;;;;;;12.77;5.10;;;28.40;51.60;;;;;;5117872;28;20935;-71
2023/06/26 10:01:24;;;;;;;13.93;4.20;;;28.40;50.70;;;;;;5122848;28;20453;-69
2023/06/26 10:03:51;;;;;;;8.30;3.93;;;28.70;50.30;;;;;;5127195;28;20462;-69
2023/06/26 10:06:22;;;;;;;5.50;3.23;;;28.70;49.70;;;;;;5122357;28;20434;-69
2023/06/26 10:08:53;;;;;;;6.60;4.20;;;28.50;50.10;;;;;;5121692;28;20491;-69
2023/06/26 10:11:27;;;;;;;7.07;3.63;;;28.10;49.80;;;;;;5123124;28;20423;-71
2023/06/26 10:13:57;;;;;;;6.93;3.03;;;27.90;51.10;;;;;;5121051;28;20475;-70
2023/06/26 10:16:29;;;;;;;4.40;2.57;;;27.90;49.40;;;;;;5122034;28;20830;-71
2023/06/26 10:19:02;;;;;;;6.57;2.90;;;28.20;49.80;;;;;;5117906;28;20496;-74
2023/06/26 10:21:31;;;;;;;8.03;3.87;;;28.60;49.00;;;;;;5115840;28;20427;-73
2023/06/26 10:23:59;;;;;;;15.10;3.33;;;29.00;48.50;;;;;;5116960;28;20462;-73
2023/06/26 10:26:28;;;;;;;7.73;3.17;;;29.30;46.50;;;;;;5120634;28;20469;-73
2023/06/26 10:28:57;;;;;;;7.87;3.00;;;29.60;45.60;;;;;;5120907;28;20446;-72
2023/06/26 10:31:29;;;;;;;7.23;3.47;;;29.40;44.60;;;;;;5119990;28;20439;-71
2023/06/26 10:33:57;;;;;;;4.93;2.43;;;29.20;45.30;;;;;;5118727;28;20522;-73
2023/06/26 10:36:29;;;;;;;5.73;2.50;;;29.10;45.60;;;;;;5119364;28;20970;-73
2023/06/26 10:38:58;;;;;;;4.90;2.50;;;29.40;47.20;;;;;;5120078;28;20489;-73
2023/06/26 10:41:27;;;;;;;7.53;2.30;;;29.90;46.30;;;;;;5119675;28;20438;-73
2023/06/26 10:44:10;;;;;;;8.23;2.23;;;30.60;44.20;;;;;;5118858;28;20509;-73
2023/06/26 10:46:52;;;;;;;2.90;2.27;;;31.20;41.60;;;;;;5119906;28;20431;-73
2023/06/26 10:49:19;;;;;;;4.80;2.10;;;31.00;38.70;;;;;;5120334;28;20454;-70
2023/06/26 10:51:50;;;;;;;4.60;3.00;;;30.50;39.80;;;;;;5120240;28;20450;-72
2023/06/26 10:54:18;;;;;;;6.10;2.50;;;30.60;39.90;;;;;;5122039;28;20454;-73
2023/06/26 10:56:46;;;;;;;4.63;2.53;;;31.10;40.40;;;;;;5123179;28;20486;-72
2023/06/26 10:59:16;;;;;;;3.93;1.43;;;31.70;39.00;;;;;;5122906;28;20454;-72
2023/06/26 11:01:44;;;;;;;4.83;1.70;;;32.10;36.90;;;;;;5122413;28;20454;-72
2023/06/26 11:04:16;;;;;;;8.30;1.97;;;31.80;35.30;;;;;;5122930;28;20450;-72
2023/06/26 11:06:46;;;;;;;6.70;2.00;;;31.70;35.40;;;;;;5122591;28;20434;-72
2023/06/26 11:09:16;;;;;;;9.67;1.67;;;32.00;34.20;;;;;;5122774;28;20427;-72
2023/06/26 11:12:04;;;;;;;7.17;1.87;;;32.60;35.70;;;;;;5122459;28;20457;-71
2023/06/26 11:14:32;;;;;;;4.50;2.00;;;33.40;33.60;;;;;;5120702;28;20517;-73
2023/06/26 11:17:00;;;;;;;3.50;2.10;;;33.70;31.90;;;;;;5118150;28;20454;-73
2023/06/26 11:19:31;;;;;;;3.23;1.80;;;33.30;32.90;;;;;;5076291;28;1191945;-73
2023/06/26 11:22:06;;;;;;;6.33;1.73;;;33.00;33.10;;;;;;5119853;28;20233;-72
2023/06/26 11:24:33;;;;;;;4.80;2.00;;;32.00;33.00;;;;;;5119959;28;20458;-73
2023/06/26 11:27:04;;;;;;;3.73;2.20;;;31.80;35.70;;;;;;5121618;28;20453;-73
2023/06/26 11:29:32;;;;;;;4.83;2.10;;;32.10;35.30;;;;;;5121997;28;20450;-72
2023/06/26 11:32:08;;;;;;;5.37;2.17;;;32.80;35.00;;;;;;5127358;28;20497;-69
2023/06/26 11:34:37;;;;;;;3.80;1.90;;;33.20;34.10;;;;;;5125262;28;20926;-68
2023/06/26 11:37:04;;;;;;;3.77;1.97;;;33.40;31.60;;;;;;5124973;28;20495;-70
2023/06/26 11:39:31;;;;;;;2.73;1.60;;;33.30;31.50;;;;;;5124574;28;20495;-70
2023/06/26 11:42:00;;;;;;;9.07;2.30;;;33.60;33.00;;;;;;5124260;28;20466;-68
2023/06/26 11:44:30;;;;;;;3.50;2.23;;;33.40;31.80;;;;;;5122670;28;20452;-69
2023/06/26 11:46:58;;;;;;;3.23;1.80;;;32.60;33.40;;;;;;5118316;28;20481;-75
2023/06/26 11:49:26;;;;;;;2.97;1.77;;;32.20;34.30;;;;;;5117709;28;20951;-73
2023/06/26 11:51:57;;;;;;;5.50;1.90;;;31.90;35.10;;;;;;5116436;28;20857;-75
2023/06/26 11:54:28;;;;;;;4.00;1.60;;;31.60;35.70;;;;;;5119550;28;20427;-73
2023/06/26 11:56:59;;;;;;;3.13;2.07;;;31.70;35.60;;;;;;5119871;28;20960;-73
2023/06/26 11:59:35;;;;;;;5.70;1.73;;;31.90;34.40;;;;;;5119820;28;20466;-73
2023/06/26 12:02:06;;;;;;;2.47;1.67;;;32.10;34.20;;;;;;5118924;28;20999;-73
2023/06/26 12:04:33;;;;;;;2.77;1.53;;;32.80;34.10;;;;;;5116634;28;20444;-74
2023/06/26 12:07:03;;;;;;;1.70;1.60;;;33.70;33.50;;;;;;5118066;28;20453;-73
2023/06/26 12:09:33;;;;;;;2.60;1.60;;;34.70;30.90;;;;;;5121245;28;20860;-70
2023/06/26 12:12:00;;;;;;;3.53;1.70;;;35.30;29.30;;;;;;5118514;28;20815;-69
2023/06/26 12:14:28;;;;;;;2.57;1.60;;;34.70;27.80;;;;;;5119219;27;20906;-71
2023/06/26 12:17:04;;;;;;;3.93;1.80;;;33.90;28.60;;;;;;5117574;28;20495;-72
2023/06/26 12:19:31;;;;;;;3.93;1.37;;;33.80;30.90;;;;;;5117400;28;20481;-71
2023/06/26 12:21:59;;;;;;;4.83;1.40;;;33.80;30.60;;;;;;5131522;28;20473;-68
2023/06/26 12:24:27;;;;;;;1.40;1.30;;;33.70;29.00;;;;;;5126045;28;20445;-68
2023/06/26 12:26:56;;;;;;;4.27;1.57;;;33.00;28.90;;;;;;5124686;28;20446;-69
2023/06/26 12:29:32;;;;;;;5.10;1.17;;;32.60;29.50;;;;;;5124831;28;20442;-67
2023/06/26 12:31:59;;;;;;;3.03;1.20;;;32.20;31.00;;;;;;5123412;28;20461;-67
2023/06/26 12:34:29;;;;;;;2.00;1.20;;;32.30;31.40;;;;;;5122557;28;20502;-68
2023/06/26 12:37:01;;;;;;;2.87;1.27;;;32.50;30.70;;;;;;5120946;28;20507;-71
2023/06/26 12:39:30;;;;;;;3.33;1.57;;;32.80;30.10;;;;;;5119825;28;20789;-68
2023/06/26 12:42:01;;;;;;;2.70;1.73;;;33.40;28.30;;;;;;5124060;28;20470;-72
2023/06/26 12:44:29;;;;;;;3.50;1.30;;;33.80;27.40;;;;;;5119733;28;20438;-74
2023/06/26 12:46:57;;;;;;;3.83;1.57;;;34.10;27.50;;;;;;5115206;28;20453;-74
2023/06/26 12:49:32;;;;;;;2.63;1.30;;;34.70;27.10;;;;;;5115840;28;20439;-74